createdAt,value
2023-05-14T00:00:51.831Z,440.00
2023-05-14T00:01:51.933Z,440.00
2023-05-14T00:02:52.120Z,440.00
2023-05-14T00:03:52.208Z,442.00
2023-05-14T00:04:52.091Z,441.00
2023-05-14T00:05:52.152Z,442.00
2023-05-14T00:06:52.222Z,439.00
2023-05-14T00:07:52.271Z,441.00
2023-05-14T00:08:52.298Z,441.00
2023-05-14T00:09:52.361Z,440.00
2023-05-14T00:10:52.432Z,440.00
2023-05-14T00:11:52.448Z,440.00
2023-05-14T00:12:52.496Z,439.00
2023-05-14T00:13:52.539Z,438.00
2023-05-14T00:14:52.597Z,439.00
2023-05-14T00:15:52.699Z,441.00
2023-05-14T00:16:52.685Z,437.00
2023-05-14T00:17:52.764Z,438.00
2023-05-14T00:18:52.811Z,435.00
2023-05-14T00:19:52.833Z,435.00
2023-05-14T00:20:52.875Z,435.00
2023-05-14T00:21:52.921Z,435.00
2023-05-14T00:22:52.959Z,434.00
2023-05-14T00:23:53.018Z,436.00
2023-05-14T00:24:53.051Z,438.00
2023-05-14T00:25:53.128Z,438.00
2023-05-14T00:26:53.144Z,440.00
2023-05-14T00:27:53.203Z,440.00
2023-05-14T00:28:53.224Z,439.00
2023-05-14T00:29:53.286Z,440.00
2023-05-14T00:30:53.435Z,439.00
2023-05-14T00:31:53.379Z,441.00
2023-05-14T00:32:53.419Z,441.00
2023-05-14T00:33:53.433Z,442.00
2023-05-14T00:34:53.456Z,441.00
2023-05-14T00:35:53.470Z,441.00
2023-05-14T00:36:53.508Z,439.00
2023-05-14T00:37:53.542Z,439.00
2023-05-14T00:38:53.545Z,443.00
2023-05-14T00:39:53.592Z,443.00
2023-05-14T00:40:53.623Z,442.00
2023-05-14T00:41:53.660Z,440.00
2023-05-14T00:42:53.704Z,439.00
2023-05-14T00:43:53.740Z,438.00
2023-05-14T00:44:53.775Z,438.00
2023-05-14T00:45:53.838Z,442.00
2023-05-14T00:46:53.857Z,443.00
2023-05-14T00:47:53.916Z,444.00
2023-05-14T00:48:53.915Z,443.00
2023-05-14T00:49:53.952Z,443.00
2023-05-14T00:50:53.971Z,442.00
2023-05-14T00:51:54.004Z,443.00
2023-05-14T00:52:54.002Z,442.00
2023-05-14T00:53:54.034Z,438.00
2023-05-14T00:54:54.053Z,438.00
2023-05-14T00:55:54.058Z,435.00
2023-05-14T00:56:54.065Z,432.00
2023-05-14T00:57:54.085Z,430.00
2023-05-14T00:58:54.070Z,429.00
2023-05-14T00:59:54.069Z,427.00
2023-05-14T01:00:54.108Z,427.00
2023-05-14T01:01:54.085Z,425.00
2023-05-14T01:02:54.195Z,422.00
2023-05-14T01:03:54.151Z,421.00
2023-05-14T01:04:54.104Z,423.00
2023-05-14T01:05:54.120Z,425.00
2023-05-14T01:06:54.138Z,424.00
2023-05-14T01:07:54.132Z,427.00
2023-05-14T01:08:54.143Z,427.00
2023-05-14T01:09:54.141Z,428.00
2023-05-14T01:10:54.131Z,428.00
2023-05-14T01:11:54.130Z,430.00
2023-05-14T01:12:54.151Z,431.00
2023-05-14T01:13:54.137Z,433.00
2023-05-14T01:14:54.194Z,435.00
2023-05-14T01:15:54.149Z,433.00
2023-05-14T01:16:54.203Z,433.00
2023-05-14T01:17:54.247Z,434.00
2023-05-14T01:18:54.192Z,434.00
2023-05-14T01:19:54.174Z,434.00
2023-05-14T01:20:54.168Z,432.00
2023-05-14T01:21:54.149Z,432.00
2023-05-14T01:22:54.166Z,430.00
2023-05-14T01:23:54.203Z,429.00
2023-05-14T01:24:54.183Z,429.00
2023-05-14T01:25:54.210Z,431.00
2023-05-14T01:26:54.195Z,433.00
2023-05-14T01:27:54.232Z,434.00
2023-05-14T01:28:54.243Z,434.00
2023-05-14T01:29:54.267Z,435.00
2023-05-14T01:30:54.305Z,434.00
2023-05-14T01:31:54.372Z,433.00
2023-05-14T01:32:54.351Z,434.00
2023-05-14T01:33:54.325Z,434.00
2023-05-14T01:34:54.334Z,437.00
2023-05-14T01:35:54.314Z,438.00
2023-05-14T01:36:54.310Z,438.00
2023-05-14T01:37:54.308Z,439.00
2023-05-14T01:38:54.322Z,439.00
2023-05-14T01:39:54.368Z,437.00
2023-05-14T01:40:54.335Z,437.00
2023-05-14T01:41:54.308Z,435.00
2023-05-14T01:42:54.334Z,433.00
2023-05-14T01:43:54.316Z,431.00
2023-05-14T01:44:54.320Z,435.00
2023-05-14T01:45:54.456Z,435.00
2023-05-14T01:46:54.317Z,436.00
2023-05-14T01:47:54.412Z,437.00
2023-05-14T01:48:54.327Z,440.00
2023-05-14T01:49:54.324Z,440.00
2023-05-14T01:50:54.328Z,438.00
2023-05-14T01:51:54.329Z,439.00
2023-05-14T01:52:54.307Z,437.00
2023-05-14T01:53:54.320Z,439.00
2023-05-14T01:54:54.317Z,441.00
2023-05-14T01:55:54.305Z,442.00
2023-05-14T01:56:54.295Z,441.00
2023-05-14T01:57:54.314Z,440.00
2023-05-14T01:58:54.318Z,439.00
2023-05-14T01:59:54.316Z,439.00
2023-05-14T02:00:54.320Z,439.00
2023-05-14T02:01:54.389Z,439.00
2023-05-14T02:02:54.374Z,437.00
2023-05-14T02:03:54.374Z,437.00
2023-05-14T02:04:54.321Z,439.00
2023-05-14T02:05:54.307Z,440.00
2023-05-14T02:06:54.319Z,440.00
2023-05-14T02:07:54.326Z,438.00
2023-05-14T02:08:54.318Z,439.00
2023-05-14T02:09:54.300Z,439.00
2023-05-14T02:10:54.310Z,439.00
2023-05-14T02:11:54.312Z,437.00
2023-05-14T02:12:54.311Z,436.00
2023-05-14T02:13:54.301Z,437.00
2023-05-14T02:14:54.306Z,437.00
2023-05-14T02:15:54.329Z,437.00
2023-05-14T02:16:54.320Z,436.00
2023-05-14T02:17:54.350Z,434.00
2023-05-14T02:18:54.345Z,434.00
2023-05-14T02:19:54.324Z,434.00
2023-05-14T02:20:54.322Z,430.00
2023-05-14T02:21:54.292Z,433.00
2023-05-14T02:22:54.293Z,435.00
2023-05-14T02:23:54.295Z,433.00
2023-05-14T02:24:54.298Z,433.00
2023-05-14T02:25:54.297Z,432.00
2023-05-14T02:26:54.289Z,434.00
2023-05-14T02:27:54.303Z,433.00
2023-05-14T02:28:54.318Z,433.00
2023-05-14T02:29:54.309Z,434.00
2023-05-14T02:30:54.314Z,434.00
2023-05-14T02:31:54.377Z,432.00
2023-05-14T02:32:54.440Z,431.00
2023-05-14T02:33:54.313Z,430.00
2023-05-14T02:34:54.301Z,430.00
2023-05-14T02:35:54.287Z,430.00
2023-05-14T02:36:54.288Z,432.00
2023-05-14T02:37:54.304Z,434.00
2023-05-14T02:38:54.279Z,433.00
2023-05-14T02:39:54.282Z,434.00
2023-05-14T02:40:54.306Z,434.00
2023-05-14T02:41:54.278Z,433.00
2023-05-14T02:42:54.308Z,435.00
2023-05-14T02:43:54.310Z,435.00
2023-05-14T02:44:54.310Z,435.00
2023-05-14T02:45:54.305Z,434.00
2023-05-14T02:46:54.333Z,435.00
2023-05-14T02:47:54.330Z,433.00
2023-05-14T02:48:54.307Z,433.00
2023-05-14T02:49:54.312Z,433.00
2023-05-14T02:50:54.306Z,433.00
2023-05-14T02:51:54.312Z,432.00
2023-05-14T02:52:54.305Z,432.00
2023-05-14T02:53:54.307Z,433.00
2023-05-14T02:54:54.322Z,436.00
2023-05-14T02:55:54.306Z,439.00
2023-05-14T02:56:54.295Z,441.00
2023-05-14T02:57:54.311Z,440.00
2023-05-14T02:58:54.291Z,439.00
2023-05-14T02:59:54.305Z,440.00
2023-05-14T03:00:54.355Z,439.00
2023-05-14T03:01:54.312Z,437.00
2023-05-14T03:02:54.356Z,437.00
2023-05-14T03:03:54.337Z,438.00
2023-05-14T03:04:54.320Z,441.00
2023-05-14T03:05:54.324Z,443.00
2023-05-14T03:06:54.353Z,439.00
2023-05-14T03:07:54.326Z,440.00
2023-05-14T03:08:54.356Z,440.00
2023-05-14T03:09:54.346Z,441.00
2023-05-14T03:10:54.358Z,441.00
2023-05-14T03:11:54.354Z,442.00
2023-05-14T03:12:54.365Z,441.00
2023-05-14T03:13:54.363Z,440.00
2023-05-14T03:14:54.366Z,440.00
2023-05-14T03:15:54.372Z,440.00
2023-05-14T03:16:54.390Z,439.00
2023-05-14T03:17:54.463Z,437.00
2023-05-14T03:18:54.404Z,436.00
2023-05-14T03:19:54.395Z,437.00
2023-05-14T03:20:54.430Z,439.00
2023-05-14T03:21:54.389Z,441.00
2023-05-14T03:22:54.406Z,443.00
2023-05-14T03:23:54.419Z,443.00
2023-05-14T03:24:54.424Z,441.00
2023-05-14T03:25:54.441Z,439.00
2023-05-14T03:26:54.433Z,438.00
2023-05-14T03:27:54.445Z,440.00
2023-05-14T03:28:54.458Z,441.00
2023-05-14T03:29:54.453Z,441.00
2023-05-14T03:30:54.496Z,442.00
2023-05-14T03:31:54.480Z,443.00
2023-05-14T03:32:54.514Z,443.00
2023-05-14T03:33:54.482Z,442.00
2023-05-14T03:34:54.500Z,440.00
2023-05-14T03:35:54.502Z,438.00
2023-05-14T03:36:54.527Z,435.00
2023-05-14T03:37:54.533Z,436.00
2023-05-14T03:38:54.521Z,435.00
2023-05-14T03:39:54.524Z,436.00
2023-05-14T03:40:54.567Z,438.00
2023-05-14T03:41:54.527Z,439.00
2023-05-14T03:42:54.531Z,439.00
2023-05-14T03:43:54.558Z,438.00
2023-05-14T03:44:54.554Z,437.00
2023-05-14T03:45:54.567Z,436.00
2023-05-14T03:46:54.597Z,435.00
2023-05-14T03:47:54.647Z,437.00
2023-05-14T03:48:54.628Z,435.00
2023-05-14T03:49:54.609Z,436.00
2023-05-14T03:50:54.617Z,435.00
2023-05-14T03:51:54.633Z,435.00
2023-05-14T03:52:54.615Z,435.00
2023-05-14T03:53:54.619Z,435.00
2023-05-14T03:54:54.641Z,435.00
2023-05-14T03:55:54.646Z,434.00
2023-05-14T03:56:54.646Z,435.00
2023-05-14T03:57:54.669Z,432.00
2023-05-14T03:58:54.670Z,432.00
2023-05-14T03:59:54.663Z,435.00
2023-05-14T04:00:54.696Z,438.00
2023-05-14T04:01:54.698Z,439.00
2023-05-14T04:02:54.717Z,435.00
2023-05-14T04:03:54.786Z,433.00
2023-05-14T04:04:54.754Z,433.00
2023-05-14T04:05:54.724Z,435.00
2023-05-14T04:06:54.734Z,433.00
2023-05-14T04:07:54.733Z,434.00
2023-05-14T04:08:54.737Z,438.00
2023-05-14T04:09:54.743Z,439.00
2023-05-14T04:10:54.755Z,439.00
2023-05-14T04:11:54.782Z,441.00
2023-05-14T04:12:54.765Z,442.00
2023-05-14T04:13:54.784Z,442.00
2023-05-14T04:14:54.800Z,443.00
2023-05-14T04:15:54.834Z,442.00
2023-05-14T04:16:54.810Z,445.00
2023-05-14T04:17:54.827Z,444.00
2023-05-14T04:18:54.826Z,443.00
2023-05-14T04:19:54.811Z,442.00
2023-05-14T04:20:54.826Z,442.00
2023-05-14T04:21:54.835Z,443.00
2023-05-14T04:22:54.838Z,444.00
2023-05-14T04:23:54.847Z,443.00
2023-05-14T04:24:54.827Z,444.00
2023-05-14T04:25:54.856Z,444.00
2023-05-14T04:26:54.841Z,444.00
2023-05-14T04:27:54.852Z,445.00
2023-05-14T04:28:54.851Z,443.00
2023-05-14T04:29:54.853Z,441.00
2023-05-14T04:30:54.868Z,439.00
2023-05-14T04:31:54.883Z,439.00
2023-05-14T04:32:54.870Z,438.00
2023-05-14T04:33:54.915Z,435.00
2023-05-14T04:34:54.867Z,435.00
2023-05-14T04:35:54.892Z,434.00
2023-05-14T04:36:54.916Z,434.00
2023-05-14T04:37:54.882Z,433.00
2023-05-14T04:38:54.908Z,432.00
2023-05-14T04:39:54.897Z,432.00
2023-05-14T04:40:54.936Z,431.00
2023-05-14T04:41:54.927Z,433.00
2023-05-14T04:42:54.946Z,432.00
2023-05-14T04:43:54.943Z,432.00
2023-05-14T04:44:54.948Z,433.00
2023-05-14T04:45:54.992Z,430.00
2023-05-14T04:46:54.995Z,429.00
2023-05-14T04:47:55.115Z,430.00
2023-05-14T04:48:55.018Z,429.00
2023-05-14T04:49:55.021Z,433.00
2023-05-14T04:50:55.028Z,434.00
2023-05-14T04:51:55.038Z,432.00
2023-05-14T04:52:55.054Z,433.00
2023-05-14T04:53:55.067Z,431.00
2023-05-14T04:54:55.099Z,431.00
2023-05-14T04:55:55.111Z,431.00
2023-05-14T04:56:55.147Z,434.00
2023-05-14T04:57:55.128Z,435.00
2023-05-14T04:58:55.144Z,439.00
2023-05-14T04:59:55.170Z,439.00
2023-05-14T05:00:55.206Z,438.00
2023-05-14T05:01:55.162Z,440.00
2023-05-14T05:02:55.235Z,439.00
2023-05-14T05:03:55.223Z,441.00
2023-05-14T05:04:55.198Z,442.00
2023-05-14T05:05:55.200Z,443.00
2023-05-14T05:06:55.228Z,441.00
2023-05-14T05:07:55.224Z,441.00
2023-05-14T05:08:55.234Z,442.00
2023-05-14T05:09:55.232Z,440.00
2023-05-14T05:10:55.255Z,438.00
2023-05-14T05:11:55.272Z,438.00
2023-05-14T05:12:55.266Z,438.00
2023-05-14T05:13:55.278Z,440.00
2023-05-14T05:14:55.285Z,441.00
2023-05-14T05:15:55.306Z,439.00
2023-05-14T05:16:55.320Z,438.00
2023-05-14T05:17:55.368Z,437.00
2023-05-14T05:18:55.369Z,442.00
2023-05-14T05:19:55.343Z,443.00
2023-05-14T05:20:55.360Z,443.00
2023-05-14T05:21:55.357Z,442.00
2023-05-14T05:22:55.384Z,441.00
2023-05-14T05:23:55.389Z,442.00
2023-05-14T05:24:55.392Z,441.00
2023-05-14T05:25:55.426Z,441.00
2023-05-14T05:26:55.431Z,441.00
2023-05-14T05:27:55.433Z,441.00
2023-05-14T05:28:55.445Z,440.00
2023-05-14T05:29:55.452Z,441.00
2023-05-14T05:30:55.504Z,441.00
2023-05-14T05:31:55.585Z,439.00
2023-05-14T05:32:55.526Z,439.00
2023-05-14T05:33:55.491Z,441.00
2023-05-14T05:34:55.504Z,442.00
2023-05-14T05:35:55.517Z,440.00
2023-05-14T05:36:55.519Z,441.00
2023-05-14T05:37:55.521Z,440.00
2023-05-14T05:38:55.537Z,439.00
2023-05-14T05:39:55.545Z,438.00
2023-05-14T05:40:55.547Z,438.00
2023-05-14T05:41:55.532Z,437.00
2023-05-14T05:42:55.549Z,437.00
2023-05-14T05:43:55.561Z,435.00
2023-05-14T05:44:55.543Z,436.00
2023-05-14T05:45:55.556Z,433.00
2023-05-14T05:46:55.665Z,434.00
2023-05-14T05:47:55.613Z,434.00
2023-05-14T05:48:55.576Z,433.00
2023-05-14T05:49:55.553Z,433.00
2023-05-14T05:50:55.555Z,431.00
2023-05-14T05:51:55.577Z,432.00
2023-05-14T05:52:55.576Z,434.00
2023-05-14T05:53:55.551Z,432.00
2023-05-14T05:54:55.560Z,432.00
2023-05-14T05:55:55.561Z,432.00
2023-05-14T05:56:55.544Z,432.00
2023-05-14T05:57:55.558Z,430.00
2023-05-14T05:58:55.555Z,427.00
2023-05-14T05:59:55.552Z,428.00
2023-05-14T06:00:55.562Z,430.00
2023-05-14T06:01:55.604Z,432.00
2023-05-14T06:02:55.571Z,430.00
2023-05-14T06:03:55.560Z,427.00
2023-05-14T06:04:55.576Z,426.00
2023-05-14T06:05:55.548Z,426.00
2023-05-14T06:06:55.549Z,428.00
2023-05-14T06:07:55.556Z,426.00
2023-05-14T06:08:55.541Z,425.00
2023-05-14T06:09:55.555Z,424.00
2023-05-14T06:10:55.562Z,426.00
2023-05-14T06:11:55.558Z,424.00
2023-05-14T06:12:55.563Z,427.00
2023-05-14T06:13:55.572Z,427.00
2023-05-14T06:14:55.568Z,425.00
2023-05-14T06:15:55.565Z,427.00
2023-05-14T06:16:55.725Z,427.00
2023-05-14T06:17:55.631Z,427.00
2023-05-14T06:18:55.664Z,427.00
2023-05-14T06:19:55.575Z,427.00
2023-05-14T06:20:55.604Z,426.00
2023-05-14T06:21:55.597Z,425.00
2023-05-14T06:22:55.592Z,425.00
2023-05-14T06:23:55.609Z,424.00
2023-05-14T06:24:55.603Z,425.00
2023-05-14T06:25:55.614Z,428.00
2023-05-14T06:26:55.597Z,427.00
2023-05-14T06:27:55.613Z,427.00
2023-05-14T06:28:55.602Z,427.00
2023-05-14T06:29:55.605Z,427.00
2023-05-14T06:30:55.599Z,431.00
2023-05-14T06:31:55.609Z,431.00
2023-05-14T06:32:55.615Z,430.00
2023-05-14T06:33:55.609Z,430.00
2023-05-14T06:34:55.614Z,431.00
2023-05-14T06:35:55.614Z,432.00
2023-05-14T06:36:55.617Z,434.00
2023-05-14T06:37:55.605Z,434.00
2023-05-14T06:38:55.599Z,435.00
2023-05-14T06:39:57.666Z,437.00
2023-05-14T06:40:55.615Z,436.00
2023-05-14T06:41:55.608Z,435.00
2023-05-14T06:42:55.618Z,436.00
2023-05-14T06:43:55.604Z,434.00
2023-05-14T06:44:55.614Z,436.00
2023-05-14T06:45:55.625Z,435.00
2023-05-14T06:46:55.645Z,432.00
2023-05-14T06:47:55.748Z,430.00
2023-05-14T06:48:58.048Z,428.00
2023-05-14T06:49:55.660Z,430.00
2023-05-14T06:50:55.655Z,429.00
2023-05-14T06:51:55.641Z,428.00
2023-05-14T06:52:55.633Z,429.00
2023-05-14T06:53:55.606Z,428.00
2023-05-14T06:54:55.613Z,427.00
2023-05-14T06:55:55.608Z,427.00
2023-05-14T06:56:55.584Z,430.00
2023-05-14T06:57:55.580Z,433.00
2023-05-14T06:58:55.572Z,433.00
2023-05-14T06:59:55.579Z,430.00
2023-05-14T07:00:55.561Z,430.00
2023-05-14T07:01:55.586Z,429.00
2023-05-14T07:02:55.630Z,430.00
2023-05-14T07:03:55.564Z,433.00
2023-05-14T07:04:55.527Z,434.00
2023-05-14T07:05:55.548Z,433.00
2023-05-14T07:06:55.531Z,432.00
2023-05-14T07:07:55.528Z,432.00
2023-05-14T07:08:55.518Z,432.00
2023-05-14T07:09:55.506Z,431.00
2023-05-14T07:10:55.486Z,430.00
2023-05-14T07:11:55.483Z,431.00
2023-05-14T07:12:55.481Z,431.00
2023-05-14T07:13:55.495Z,430.00
2023-05-14T07:14:55.455Z,430.00
2023-05-14T07:15:55.469Z,430.00
2023-05-14T07:16:55.496Z,432.00
2023-05-14T07:17:55.623Z,435.00
2023-05-14T07:18:55.542Z,435.00
2023-05-14T07:19:55.442Z,433.00
2023-05-14T07:20:55.426Z,434.00
2023-05-14T07:21:55.420Z,434.00
2023-05-14T07:22:55.428Z,434.00
2023-05-14T07:23:55.401Z,436.00
2023-05-14T07:24:55.404Z,435.00
2023-05-14T07:25:55.401Z,435.00
2023-05-14T07:26:55.385Z,435.00
2023-05-14T07:27:55.387Z,435.00
2023-05-14T07:28:55.386Z,432.00
2023-05-14T07:29:55.375Z,432.00
2023-05-14T07:30:55.460Z,432.00
2023-05-14T07:31:55.471Z,431.00
2023-05-14T07:32:55.567Z,430.00
2023-05-14T07:33:55.582Z,430.00
2023-05-14T07:34:55.616Z,430.00
2023-05-14T07:35:55.680Z,431.00
2023-05-14T07:36:55.728Z,428.00
2023-05-14T07:37:55.764Z,427.00
2023-05-14T07:38:55.822Z,427.00
2023-05-14T07:39:55.867Z,426.00
2023-05-14T07:40:55.891Z,426.00
2023-05-14T07:41:55.953Z,428.00
2023-05-14T07:42:55.966Z,428.00
2023-05-14T07:43:55.999Z,428.00
2023-05-14T07:44:56.035Z,430.00
2023-05-14T07:45:56.065Z,431.00
2023-05-14T07:46:56.103Z,431.00
2023-05-14T07:47:56.214Z,430.00
2023-05-14T07:48:56.131Z,433.00
2023-05-14T07:49:56.157Z,433.00
2023-05-14T07:50:56.190Z,433.00
2023-05-14T07:51:56.196Z,434.00
2023-05-14T07:52:56.219Z,434.00
2023-05-14T07:53:56.229Z,431.00
2023-05-14T07:54:56.263Z,431.00
2023-05-14T07:55:56.276Z,431.00
2023-05-14T07:56:56.297Z,431.00
2023-05-14T07:57:56.305Z,428.00
2023-05-14T07:58:56.316Z,429.00
2023-05-14T07:59:56.327Z,429.00
2023-05-14T08:00:56.354Z,426.00
2023-05-14T08:01:56.409Z,424.00
2023-05-14T08:02:56.524Z,424.00
2023-05-14T08:03:56.485Z,424.00
2023-05-14T08:04:56.436Z,425.00
2023-05-14T08:05:56.444Z,424.00
2023-05-14T08:06:56.467Z,421.00
2023-05-14T08:07:56.478Z,421.00
2023-05-14T08:08:56.507Z,423.00
2023-05-14T08:09:56.530Z,426.00
2023-05-14T08:10:56.575Z,426.00
2023-05-14T08:11:56.551Z,427.00
2023-05-14T08:12:56.567Z,431.00
2023-05-14T08:13:56.587Z,432.00
2023-05-14T08:14:56.624Z,431.00
2023-05-14T08:15:56.624Z,430.00
2023-05-14T08:16:56.735Z,431.00
2023-05-14T08:17:56.717Z,429.00
2023-05-14T08:18:56.679Z,426.00
2023-05-14T08:19:56.721Z,425.00
2023-05-14T08:20:57.129Z,426.00
2023-05-14T08:21:56.816Z,425.00
2023-05-14T08:22:56.891Z,422.00
2023-05-14T08:23:56.885Z,419.00
2023-05-14T08:24:56.900Z,421.00
2023-05-14T08:25:56.890Z,422.00
2023-05-14T08:26:56.906Z,423.00
2023-05-14T08:27:56.917Z,424.00
2023-05-14T08:28:56.972Z,426.00
2023-05-14T08:29:56.963Z,427.00
2023-05-14T08:30:56.992Z,430.00
2023-05-14T08:31:57.006Z,432.00
2023-05-14T08:32:56.998Z,432.00
2023-05-14T08:33:56.979Z,431.00
2023-05-14T08:34:57.062Z,433.00
2023-05-14T08:35:57.169Z,431.00
2023-05-14T08:36:57.156Z,430.00
2023-05-14T08:37:57.165Z,429.00
2023-05-14T08:38:57.159Z,428.00
2023-05-14T08:39:57.147Z,430.00
2023-05-14T08:40:57.147Z,432.00
2023-05-14T08:41:57.202Z,434.00
2023-05-14T08:42:57.275Z,435.00
2023-05-14T08:43:57.401Z,433.00
2023-05-14T08:44:57.384Z,432.00
2023-05-14T08:45:57.374Z,432.00
2023-05-14T08:46:57.379Z,432.00
2023-05-14T08:47:57.432Z,432.00
2023-05-14T08:48:57.408Z,432.00
2023-05-14T08:49:57.385Z,430.00
2023-05-14T08:50:57.487Z,429.00
2023-05-14T08:51:57.562Z,429.00
2023-05-14T08:52:57.649Z,427.00
2023-05-14T08:53:57.667Z,428.00
2023-05-14T08:54:57.677Z,427.00
2023-05-14T08:55:57.734Z,427.00
2023-05-14T08:56:57.764Z,426.00
2023-05-14T08:57:57.801Z,426.00
2023-05-14T08:58:57.833Z,425.00
2023-05-14T08:59:57.908Z,423.00
2023-05-14T09:00:57.957Z,420.00
2023-05-14T09:01:58.063Z,419.00
2023-05-14T09:02:58.091Z,418.00
2023-05-14T09:03:58.170Z,417.00
2023-05-14T09:04:58.206Z,418.00
2023-05-14T09:06:00.128Z,420.00
2023-05-14T09:06:58.349Z,422.00
2023-05-14T09:07:58.374Z,421.00
2023-05-14T09:08:58.453Z,420.00
2023-05-14T09:09:58.495Z,419.00
2023-05-14T09:10:58.586Z,417.00
2023-05-14T09:11:58.633Z,416.00
2023-05-14T09:12:58.696Z,416.00
2023-05-14T09:13:58.763Z,416.00
2023-05-14T09:14:58.809Z,419.00
2023-05-14T09:15:58.910Z,420.00
2023-05-14T09:16:58.927Z,420.00
2023-05-14T09:17:59.010Z,422.00
2023-05-14T09:18:59.152Z,421.00
2023-05-14T09:19:59.114Z,419.00
2023-05-14T09:20:59.185Z,417.00
2023-05-14T09:21:59.296Z,418.00
2023-05-14T09:22:59.294Z,419.00
2023-05-14T09:23:59.360Z,418.00
2023-05-14T09:24:59.412Z,420.00
2023-05-14T09:25:59.483Z,421.00
2023-05-14T09:26:59.539Z,422.00
2023-05-14T09:27:59.590Z,422.00
2023-05-14T09:28:59.641Z,420.00
2023-05-14T09:29:59.687Z,420.00
2023-05-14T09:30:59.734Z,419.00
2023-05-14T09:31:59.878Z,418.00
2023-05-14T09:32:59.873Z,419.00
2023-05-14T09:33:59.894Z,420.00
2023-05-14T09:34:59.960Z,422.00
2023-05-14T09:36:00.004Z,423.00
2023-05-14T09:37:00.063Z,422.00
2023-05-14T09:38:00.171Z,421.00
2023-05-14T09:39:00.185Z,421.00
2023-05-14T09:40:00.258Z,421.00
2023-05-14T09:41:00.305Z,421.00
2023-05-14T09:42:00.349Z,421.00
2023-05-14T09:43:00.424Z,420.00
2023-05-14T09:44:00.489Z,421.00
2023-05-14T09:45:00.540Z,420.00
2023-05-14T09:46:00.604Z,420.00
2023-05-14T09:47:00.711Z,422.00
2023-05-14T09:48:00.795Z,422.00
2023-05-14T09:49:00.796Z,421.00
2023-05-14T09:50:00.856Z,423.00
2023-05-14T09:51:02.754Z,425.00
2023-05-14T09:52:00.897Z,424.00
2023-05-14T09:53:00.898Z,423.00
2023-05-14T09:54:00.876Z,423.00
2023-05-14T09:55:00.900Z,425.00
2023-05-14T09:56:00.883Z,423.00
2023-05-14T09:57:00.861Z,422.00
2023-05-14T09:58:00.857Z,418.00
2023-05-14T09:59:00.855Z,419.00
2023-05-14T10:00:00.842Z,420.00
2023-05-14T10:01:00.907Z,419.00
2023-05-14T10:02:00.849Z,420.00
2023-05-14T10:03:00.912Z,420.00
2023-05-14T10:04:00.851Z,420.00
2023-05-14T10:05:00.809Z,423.00
2023-05-14T10:06:00.800Z,423.00
2023-05-14T10:07:00.810Z,424.00
2023-05-14T10:08:00.793Z,426.00
2023-05-14T10:09:00.785Z,429.00
2023-05-14T10:10:00.782Z,428.00
2023-05-14T10:11:00.756Z,428.00
2023-05-14T10:12:00.762Z,427.00
2023-05-14T10:13:00.746Z,427.00
2023-05-14T10:14:00.751Z,428.00
2023-05-14T10:15:00.748Z,429.00
2023-05-14T10:16:00.744Z,428.00
2023-05-14T10:17:00.748Z,427.00
2023-05-14T10:18:00.782Z,427.00
2023-05-14T10:19:00.770Z,427.00
2023-05-14T10:20:00.718Z,425.00
2023-05-14T10:21:00.704Z,426.00
2023-05-14T10:22:00.690Z,425.00
2023-05-14T10:23:00.680Z,423.00
2023-05-14T10:24:00.685Z,422.00
2023-05-14T10:25:00.673Z,423.00
2023-05-14T10:26:00.657Z,421.00
2023-05-14T10:27:00.723Z,420.00
2023-05-14T10:28:00.789Z,418.00
2023-05-14T10:29:00.849Z,417.00
2023-05-14T10:30:00.911Z,416.00
2023-05-14T10:31:01.124Z,415.00
2023-05-14T10:32:01.021Z,417.00
2023-05-14T10:33:01.097Z,414.00
2023-05-14T10:34:01.145Z,415.00
2023-05-14T10:35:01.219Z,415.00
2023-05-14T10:36:01.309Z,415.00
2023-05-14T10:37:01.326Z,413.00
2023-05-14T10:38:01.401Z,415.00
2023-05-14T10:39:01.454Z,415.00
2023-05-14T10:40:01.529Z,416.00
2023-05-14T10:41:01.596Z,416.00
2023-05-14T10:42:01.662Z,416.00
2023-05-14T10:43:01.738Z,417.00
2023-05-14T10:44:01.775Z,419.00
2023-05-14T10:45:01.881Z,419.00
2023-05-14T10:46:01.899Z,418.00
2023-05-14T10:47:02.107Z,418.00
2023-05-14T10:48:02.063Z,416.00
2023-05-14T10:49:02.085Z,414.00
2023-05-14T10:50:02.187Z,412.00
2023-05-14T10:51:02.255Z,412.00
2023-05-14T10:52:02.280Z,410.00
2023-05-14T10:53:02.317Z,410.00
2023-05-14T10:54:02.341Z,410.00
2023-05-14T10:55:03.589Z,410.00
2023-05-14T10:56:02.444Z,410.00
2023-05-14T10:57:02.496Z,411.00
2023-05-14T10:58:02.550Z,412.00
2023-05-14T10:59:02.594Z,410.00
2023-05-14T11:00:02.694Z,408.00
2023-05-14T11:01:02.742Z,408.00
2023-05-14T11:02:02.796Z,409.00
2023-05-14T11:03:02.858Z,410.00
2023-05-14T11:04:02.934Z,410.00
2023-05-14T11:05:02.954Z,411.00
2023-05-14T11:06:03.021Z,412.00
2023-05-14T11:07:03.085Z,408.00
2023-05-14T11:08:03.161Z,409.00
2023-05-14T11:09:03.244Z,409.00
2023-05-14T11:10:03.266Z,410.00
2023-05-14T11:11:03.352Z,412.00
2023-05-14T11:12:03.396Z,412.00
2023-05-14T11:13:03.495Z,409.00
2023-05-14T11:14:03.543Z,408.00
2023-05-14T11:15:03.609Z,409.00
2023-05-14T11:16:15.006Z,411.00
2023-05-14T11:17:04.756Z,413.00
2023-05-14T11:18:03.683Z,414.00
2023-05-14T11:19:03.923Z,415.00
2023-05-14T11:20:03.644Z,415.00
2023-05-14T11:21:03.673Z,413.00
2023-05-14T11:22:03.633Z,412.00
2023-05-14T11:23:03.624Z,412.00
2023-05-14T11:24:03.625Z,410.00
2023-05-14T11:25:03.604Z,409.00
2023-05-14T11:26:03.764Z,408.00
2023-05-14T11:27:03.713Z,406.00
2023-05-14T11:28:03.768Z,406.00
2023-05-14T11:29:03.831Z,406.00
2023-05-14T11:30:03.890Z,406.00
2023-05-14T11:31:03.960Z,402.00
2023-05-14T11:32:04.100Z,405.00
2023-05-14T11:33:04.129Z,406.00
2023-05-14T11:34:04.123Z,404.00
2023-05-14T11:35:04.190Z,406.00
2023-05-14T11:36:04.248Z,405.00
2023-05-14T11:37:04.315Z,406.00
2023-05-14T11:38:04.379Z,405.00
2023-05-14T11:39:04.434Z,405.00
2023-05-14T11:40:04.495Z,405.00
2023-05-14T11:41:04.542Z,407.00
2023-05-14T11:42:04.570Z,407.00
2023-05-14T11:43:04.654Z,407.00
2023-05-14T11:44:05.075Z,406.00
2023-05-14T11:45:04.771Z,405.00
2023-05-14T11:46:04.795Z,406.00
2023-05-14T11:47:04.801Z,406.00
2023-05-14T11:48:04.829Z,406.00
2023-05-14T11:49:04.854Z,406.00
2023-05-14T11:50:05.970Z,407.00
2023-05-14T11:51:04.930Z,404.00
2023-05-14T11:52:04.968Z,405.00
2023-05-14T11:53:04.973Z,405.00
2023-05-14T11:54:04.964Z,404.00
2023-05-14T11:55:04.969Z,404.00
2023-05-14T11:56:05.682Z,405.00
2023-05-14T11:57:04.940Z,405.00
2023-05-14T11:58:04.954Z,407.00
2023-05-14T11:59:04.967Z,408.00
2023-05-14T12:00:05.004Z,408.00
2023-05-14T12:01:05.011Z,410.00
2023-05-14T12:02:05.034Z,409.00
2023-05-14T12:03:05.046Z,409.00
2023-05-14T12:04:05.094Z,410.00
2023-05-14T12:05:05.008Z,411.00
2023-05-14T12:06:05.060Z,409.00
2023-05-14T12:07:05.077Z,408.00
2023-05-14T12:08:05.081Z,406.00
2023-05-14T12:09:05.093Z,405.00
2023-05-14T12:10:05.070Z,406.00
2023-05-14T12:11:05.055Z,403.00
2023-05-14T12:12:05.099Z,403.00
2023-05-14T12:13:05.097Z,405.00
2023-05-14T12:14:05.102Z,407.00
2023-05-14T12:15:05.113Z,406.00
2023-05-14T12:16:05.163Z,407.00
2023-05-14T12:17:05.094Z,407.00
2023-05-14T12:18:13.676Z,406.00
2023-05-14T12:19:06.155Z,410.00
2023-05-14T12:20:05.101Z,410.00
2023-05-14T12:21:05.106Z,410.00
2023-05-14T12:22:05.093Z,410.00
2023-05-14T12:23:05.078Z,410.00
2023-05-14T12:24:05.099Z,410.00
2023-05-14T12:25:05.075Z,411.00
2023-05-14T12:26:05.072Z,410.00
2023-05-14T12:27:05.057Z,407.00
2023-05-14T12:28:05.049Z,406.00
2023-05-14T12:29:05.071Z,406.00